Goliah — WDD5908 — position and weather

sailwx.info

Track history (hours):
 
Tides and Currents Weather Stations Pressure Air Temp Water Temp Dewpoint Dewpoint Depression Visibility Wind Speed Wind Dir Waves Ship Positions

Goliah

Owner: Crowley Marine Services, Inc., Seattle, WA. More information available from US FCC via Universal Licensing System and Coast Guard Vessel Documentation Center.

Last reported at 2014-Dec-18 03:34 UTC. Time now 2014-Dec-20 19:29 UTC.
Position N 37°40' W 122°44'.

Length 33 m; draft 4.8 m.

Type: Tug. MMSI: 366898250.

Date/timePositionNaut miles runAvg speedWind from/ knotsBaromVisibWave heightAir tempDewpointWater temp
2014-Dec-18 03:34N 37°40' W 122°44'10 9.6
2014-Dec-18 02:33N 37°46' W 122°35'9 9.1
2014-Dec-18 01:34N 37°49' W 122°24'4 4.4
2014-Dec-18 00:34N 37°49' W 122°19'0 0.0
2014-Dec-17 23:34N 37°49' W 122°19'0 0.0
2014-Dec-17 22:33N 37°49' W 122°19'8 8.1
2014-Dec-17 21:33N 37°49' W 122°29'7 7.3
2014-Dec-17 20:34N 37°46' W 122°37'10 9.7
2014-Dec-17 19:34N 37°48' W 122°49'1010.0
2014-Dec-17 18:34N 37°52' W 123°00'10 9.6
2014-Dec-17 17:34N 37°57' W 123°11'10 9.9
2014-Dec-17 16:33N 38°05' W 123°20'1010.0
2014-Dec-17 15:34N 38°13' W 123°26'10 9.6
2014-Dec-17 14:34N 38°22' W 123°31'9 9.4
2014-Dec-17 13:33N 38°30' W 123°37'9 9.4
2014-Dec-17 12:32N 38°39' W 123°42'  
2014-Dec-15 07:32N 45°30' W 124°34'7 7.0
2014-Dec-15 06:33N 45°36' W 124°36'7 7.3
2014-Dec-15 05:33N 45°44' W 124°36'8 7.7
2014-Dec-15 04:33N 45°51' W 124°36'8 7.9
2014-Dec-15 03:34N 45°59' W 124°36'8 7.8
2014-Dec-15 02:34N 46°07' W 124°36'8 7.7
2014-Dec-15 01:33N 46°15' W 124°36'8 7.6
2014-Dec-15 00:33N 46°22' W 124°36'7 7.4
2014-Dec-14 23:33N 46°30' W 124°36'7 7.4
2014-Dec-14 22:33N 46°36' W 124°42'7 7.4
2014-Dec-14 21:33N 46°42' W 124°48'101 7.6
2014-Dec-14 08:15N 48°23' W 124°54'7 9.6
2014-Dec-14 07:33N 48°26' W 124°45'1010.2
2014-Dec-14 06:34N 48°23' W 124°31'9 9.1
2014-Dec-14 05:33N 48°19' W 124°18'9 8.5
2014-Dec-14 04:31N 48°15' W 124°06'9 9.3
2014-Dec-14 03:32N 48°12' W 123°54'9 9.4
2014-Dec-14 02:33N 48°11' W 123°40'8 8.4
2014-Dec-14 01:33N 48°11' W 123°27'9 8.5
2014-Dec-14 00:33N 48°12' W 123°15'9 8.8
2014-Dec-13 23:33N 48°12' W 123°01'20 9.8
2014-Dec-13 21:29N 48°01' W 122°36'1011.0
2014-Dec-13 20:34N 47°54' W 122°26'9 9.2
2014-Dec-13 19:34N 47°58' W 122°15'1 0.8
2014-Dec-13 18:33N 47°59' W 122°13'0 0.0
2014-Dec-13 17:33N 47°59' W 122°13'0 0.0
2014-Dec-13 16:33N 47°59' W 122°13'0 0.0
2014-Dec-13 15:33N 47°59' W 122°13'0 0.0
2014-Dec-13 14:34N 47°59' W 122°13'0 0.0
2014-Dec-13 13:34N 47°59' W 122°13'0 0.0
2014-Dec-13 12:33N 47°59' W 122°13'0 0.0
2014-Dec-13 11:33N 47°59' W 122°13'0 0.0
2014-Dec-13 10:34N 47°59' W 122°13'0 0.0
2014-Dec-13 09:33N 47°59' W 122°13'0 0.0
2014-Dec-13 08:33N 47°59' W 122°13'0 0.0
2014-Dec-13 07:34N 47°59' W 122°13'0 0.0
2014-Dec-13 06:33N 47°59' W 122°13'0 0.0
2014-Dec-12 19:07N 47°59' W 122°13'13 5.0
2014-Dec-12 16:27N 47°48' W 122°25'1010.9
2014-Dec-12 15:33N 47°38' W 122°25'4 4.1
2014-Dec-12 14:34N 47°35' W 122°21'0 0.0
2014-Dec-12 13:33N 47°35' W 122°21'0 0.0
2014-Dec-12 12:34N 47°35' W 122°21'0 0.0
2014-Dec-12 11:21N 47°35' W 122°21'0 0.0
2014-Dec-12 09:34N 47°35' W 122°21'0 0.0
2014-Dec-12 08:33N 47°35' W 122°21'0 0.0
2014-Dec-12 07:33N 47°35' W 122°21'0 0.0
2014-Dec-12 06:34N 47°35' W 122°21'0 0.0
2014-Dec-12 05:34N 47°35' W 122°21'0 0.0
2014-Dec-12 04:34N 47°35' W 122°21'0 0.0
2014-Dec-12 03:34N 47°35' W 122°21'0 0.0
2014-Dec-12 02:34N 47°35' W 122°21'0 0.0
2014-Dec-12 01:34N 47°35' W 122°21'0 0.0
2014-Dec-12 00:33N 47°35' W 122°21'0 0.0
2014-Dec-11 23:34N 47°35' W 122°21'0 0.0
2014-Dec-11 22:34N 47°35' W 122°21'0 0.0
2014-Dec-11 21:34N 47°35' W 122°21'0 0.0
2014-Dec-11 20:34N 47°35' W 122°21'0 0.0
2014-Dec-11 19:34N 47°35' W 122°21'0 0.0
2014-Dec-11 18:34N 47°35' W 122°21'0 0.0
2014-Dec-11 17:33N 47°35' W 122°21'0 0.0
2014-Dec-11 16:34N 47°35' W 122°21'0 0.0
2014-Dec-11 15:34N 47°35' W 122°21'0 0.0
2014-Dec-11 14:33N 47°35' W 122°21'0 0.0
2014-Dec-11 13:34N 47°35' W 122°21'0 0.0
2014-Dec-11 12:34N 47°35' W 122°21'0 0.0
2014-Dec-11 11:33N 47°35' W 122°21'0 0.0
2014-Dec-11 10:34N 47°35' W 122°21'0 0.0
2014-Dec-11 09:34N 47°35' W 122°21'0 0.0
2014-Dec-11 08:34N 47°35' W 122°21'0 0.0
2014-Dec-11 07:34N 47°35' W 122°21'0 0.0
2014-Dec-11 06:34N 47°35' W 122°21'0 0.0
2014-Dec-11 05:34N 47°35' W 122°21'0 0.0
2014-Dec-11 04:34N 47°35' W 122°21'0 0.0
2014-Dec-11 03:34N 47°35' W 122°21'0 0.0
2014-Dec-11 02:34N 47°35' W 122°21'0 0.0
2014-Dec-11 01:33N 47°35' W 122°21'0 0.0
2014-Dec-11 00:33N 47°35' W 122°21'0 0.0
2014-Dec-10 23:33N 47°35' W 122°21'0 0.0
2014-Dec-10 22:33N 47°35' W 122°21'0 0.0
2014-Dec-10 21:32N 47°35' W 122°21'0 0.0
2014-Dec-10 20:29N 47°35' W 122°21'0 0.0
2014-Dec-10 19:33N 47°35' W 122°21'0 0.0
2014-Dec-10 18:33N 47°35' W 122°21'0 0.0
2014-Dec-10 17:33N 47°35' W 122°21'0 0.0
2014-Dec-10 16:33N 47°35' W 122°21'0 0.0
2014-Dec-10 15:33N 47°35' W 122°21'0 0.0
2014-Dec-10 14:32N 47°35' W 122°21'0 0.0
2014-Dec-10 13:33N 47°35' W 122°21'0 0.0
2014-Dec-10 12:33N 47°35' W 122°21'0 0.0
2014-Dec-10 11:33N 47°35' W 122°21'0 0.0
2014-Dec-10 10:25N 47°35' W 122°21'0 0.0
2014-Dec-10 09:33N 47°35' W 122°21'0 0.0
2014-Dec-10 08:34N 47°35' W 122°21'0 0.0
2014-Dec-10 07:33N 47°35' W 122°21'0 0.0
2014-Dec-10 06:33N 47°35' W 122°21'0 0.0
2014-Dec-10 05:33N 47°35' W 122°21'0 0.0
2014-Dec-10 04:33N 47°35' W 122°21'0 0.0
2014-Dec-10 03:33N 47°35' W 122°21'0 0.0
2014-Dec-10 02:33N 47°35' W 122°21'0 0.0
2014-Dec-10 01:33N 47°35' W 122°21'0 0.0
2014-Dec-10 00:33N 47°35' W 122°21'0 0.0
2014-Dec-09 23:33N 47°35' W 122°21'0 0.0
2014-Dec-09 22:30N 47°35' W 122°21'0 0.0
2014-Dec-09 21:33N 47°35' W 122°21'0 0.0
2014-Dec-09 20:33N 47°35' W 122°21'0 0.0
2014-Dec-09 19:33N 47°35' W 122°21'0 0.0
2014-Dec-09 18:33N 47°35' W 122°21'0 0.0
2014-Dec-09 18:31N 47°35' W 122°21'0 0.0
2014-Dec-09 17:34N 47°35' W 122°21'0 0.2
2014-Dec-09 17:32N 47°35' W 122°21'0 0.0
2014-Dec-09 16:34N 47°35' W 122°21'0 0.2
2014-Dec-09 16:32N 47°35' W 122°21'0 0.0
2014-Dec-09 15:33N 47°35' W 122°21'0 0.0
2014-Dec-09 15:31N 47°35' W 122°21'0 0.0
2014-Dec-09 14:33N 47°35' W 122°21'0 0.0
2014-Dec-09 14:31N 47°35' W 122°21'0 0.0
2014-Dec-09 13:33N 47°35' W 122°21'0 0.0
2014-Dec-09 13:31N 47°35' W 122°21'0 0.0
2014-Dec-09 12:33N 47°35' W 122°21'0 0.0
2014-Dec-09 12:31N 47°35' W 122°21'0 0.0
2014-Dec-09 11:33N 47°35' W 122°21'0 0.0
2014-Dec-09 11:31N 47°35' W 122°21'0 0.0
2014-Dec-09 10:22N 47°35' W 122°21'0 0.2
2014-Dec-09 10:20N 47°35' W 122°21'0 0.0
2014-Dec-09 09:33N 47°35' W 122°21'0 0.0
2014-Dec-09 09:25N 47°35' W 122°21'0 0.0
2014-Dec-09 08:33N 47°35' W 122°21'0 0.0
2014-Dec-09 08:30N 47°35' W 122°21'1 1.8
2014-Dec-09 07:40N 47°36' W 122°23'110.1
2014-Dec-09 07:34N 47°37' W 122°24'8 8.4
2014-Dec-09 06:34N 47°45' W 122°27'0 8.3
2014-Dec-09 06:30N 47°45' W 122°27'9 9.1
2014-Dec-09 05:34N 47°54' W 122°30'0 8.0
2014-Dec-09 05:30N 47°54' W 122°30'7 7.1
2014-Dec-09 04:33N 47°59' W 122°37'26 7.7
2014-Dec-09 01:11N 48°25' W 122°45'5 8.7
2014-Dec-09 00:33N 48°30' W 122°43'6 2.8
2014-Dec-08 22:27N 48°31' W 122°35'1 1.6
2014-Dec-08 21:33N 48°32' W 122°34'5 4.5
2014-Dec-08 20:34N 48°36' W 122°37'7 7.0
2014-Dec-08 19:33N 48°42' W 122°43'8 7.9
2014-Dec-08 18:33N 48°50' W 122°45'2 1.6
2014-Dec-08 17:19N 48°52' W 122°46'1 0.8
2014-Dec-08 16:24N 48°51' W 122°46'5 5.8
2014-Dec-08 15:34N 48°46' W 122°45'9 8.9
2014-Dec-08 14:33N 48°38' W 122°39'7 0.9
2014-Dec-08 06:33N 48°31' W 122°39'4 4.1
2014-Dec-08 05:33N 48°28' W 122°44'5 4.7
2014-Dec-08 04:34N 48°24' W 122°48'  
Track history (hours):
 
Tides and Currents Weather Stations Pressure Air Temp Water Temp Dewpoint Dewpoint Depression Visibility Wind Speed Wind Dir Waves Ship Positions

Goliah

Owner: Crowley Marine Services, Inc., Seattle, WA. More information available from US FCC via Universal Licensing System and Coast Guard Vessel Documentation Center.

Last reported at 2014-Dec-18 03:34 UTC. Time now 2014-Dec-20 19:29 UTC.
Position N 37°40' W 122°44'.

Length 33 m; draft 4.8 m.

Type: Tug. MMSI: 366898250.

Date/timePositionNaut miles runAvg speedWind from/ knotsBaromVisibWave heightAir tempDewpointWater temp
2014-Dec-18 03:34N 37°40' W 122°44'10 9.6
2014-Dec-18 02:33N 37°46' W 122°35'9 9.1
2014-Dec-18 01:34N 37°49' W 122°24'4 4.4
2014-Dec-18 00:34N 37°49' W 122°19'0 0.0
2014-Dec-17 23:34N 37°49' W 122°19'0 0.0
2014-Dec-17 22:33N 37°49' W 122°19'8 8.1
2014-Dec-17 21:33N 37°49' W 122°29'7 7.3
2014-Dec-17 20:34N 37°46' W 122°37'10 9.7
2014-Dec-17 19:34N 37°48' W 122°49'1010.0
2014-Dec-17 18:34N 37°52' W 123°00'10 9.6
2014-Dec-17 17:34N 37°57' W 123°11'10 9.9
2014-Dec-17 16:33N 38°05' W 123°20'1010.0
2014-Dec-17 15:34N 38°13' W 123°26'10 9.6
2014-Dec-17 14:34N 38°22' W 123°31'9 9.4
2014-Dec-17 13:33N 38°30' W 123°37'9 9.4
2014-Dec-17 12:32N 38°39' W 123°42'  
2014-Dec-15 07:32N 45°30' W 124°34'7 7.0
2014-Dec-15 06:33N 45°36' W 124°36'7 7.3
2014-Dec-15 05:33N 45°44' W 124°36'8 7.7
2014-Dec-15 04:33N 45°51' W 124°36'8 7.9
2014-Dec-15 03:34N 45°59' W 124°36'8 7.8
2014-Dec-15 02:34N 46°07' W 124°36'8 7.7
2014-Dec-15 01:33N 46°15' W 124°36'8 7.6
2014-Dec-15 00:33N 46°22' W 124°36'7 7.4
2014-Dec-14 23:33N 46°30' W 124°36'7 7.4
2014-Dec-14 22:33N 46°36' W 124°42'7 7.4
2014-Dec-14 21:33N 46°42' W 124°48'101 7.6
2014-Dec-14 08:15N 48°23' W 124°54'7 9.6
2014-Dec-14 07:33N 48°26' W 124°45'1010.2
2014-Dec-14 06:34N 48°23' W 124°31'9 9.1
2014-Dec-14 05:33N 48°19' W 124°18'9 8.5
2014-Dec-14 04:31N 48°15' W 124°06'9 9.3
2014-Dec-14 03:32N 48°12' W 123°54'9 9.4
2014-Dec-14 02:33N 48°11' W 123°40'8 8.4
2014-Dec-14 01:33N 48°11' W 123°27'9 8.5
2014-Dec-14 00:33N 48°12' W 123°15'9 8.8
2014-Dec-13 23:33N 48°12' W 123°01'20 9.8
2014-Dec-13 21:29N 48°01' W 122°36'1011.0
2014-Dec-13 20:34N 47°54' W 122°26'9 9.2
2014-Dec-13 19:34N 47°58' W 122°15'1 0.8
2014-Dec-13 18:33N 47°59' W 122°13'0 0.0
2014-Dec-13 17:33N 47°59' W 122°13'0 0.0
2014-Dec-13 16:33N 47°59' W 122°13'0 0.0
2014-Dec-13 15:33N 47°59' W 122°13'0 0.0
2014-Dec-13 14:34N 47°59' W 122°13'0 0.0
2014-Dec-13 13:34N 47°59' W 122°13'0 0.0
2014-Dec-13 12:33N 47°59' W 122°13'0 0.0
2014-Dec-13 11:33N 47°59' W 122°13'0 0.0
2014-Dec-13 10:34N 47°59' W 122°13'0 0.0
2014-Dec-13 09:33N 47°59' W 122°13'0 0.0
2014-Dec-13 08:33N 47°59' W 122°13'0 0.0
2014-Dec-13 07:34N 47°59' W 122°13'0 0.0
2014-Dec-13 06:33N 47°59' W 122°13'0 0.0
2014-Dec-12 19:07N 47°59' W 122°13'13 5.0
2014-Dec-12 16:27N 47°48' W 122°25'1010.9
2014-Dec-12 15:33N 47°38' W 122°25'4 4.1
2014-Dec-12 14:34N 47°35' W 122°21'0 0.0
2014-Dec-12 13:33N 47°35' W 122°21'0 0.0
2014-Dec-12 12:34N 47°35' W 122°21'0 0.0
2014-Dec-12 11:21N 47°35' W 122°21'0 0.0
2014-Dec-12 09:34N 47°35' W 122°21'0 0.0
2014-Dec-12 08:33N 47°35' W 122°21'0 0.0
2014-Dec-12 07:33N 47°35' W 122°21'0 0.0
2014-Dec-12 06:34N 47°35' W 122°21'0 0.0
2014-Dec-12 05:34N 47°35' W 122°21'0 0.0
2014-Dec-12 04:34N 47°35' W 122°21'0 0.0
2014-Dec-12 03:34N 47°35' W 122°21'0 0.0
2014-Dec-12 02:34N 47°35' W 122°21'0 0.0
2014-Dec-12 01:34N 47°35' W 122°21'0 0.0
2014-Dec-12 00:33N 47°35' W 122°21'0 0.0
2014-Dec-11 23:34N 47°35' W 122°21'0 0.0
2014-Dec-11 22:34N 47°35' W 122°21'0 0.0
2014-Dec-11 21:34N 47°35' W 122°21'0 0.0
2014-Dec-11 20:34N 47°35' W 122°21'0 0.0
2014-Dec-11 19:34N 47°35' W 122°21'0 0.0
2014-Dec-11 18:34N 47°35' W 122°21'0 0.0
2014-Dec-11 17:33N 47°35' W 122°21'0 0.0
2014-Dec-11 16:34N 47°35' W 122°21'0 0.0
2014-Dec-11 15:34N 47°35' W 122°21'0 0.0
2014-Dec-11 14:33N 47°35' W 122°21'0 0.0
2014-Dec-11 13:34N 47°35' W 122°21'0 0.0
2014-Dec-11 12:34N 47°35' W 122°21'0 0.0
2014-Dec-11 11:33N 47°35' W 122°21'0 0.0
2014-Dec-11 10:34N 47°35' W 122°21'0 0.0
2014-Dec-11 09:34N 47°35' W 122°21'0 0.0
2014-Dec-11 08:34N 47°35' W 122°21'0 0.0
2014-Dec-11 07:34N 47°35' W 122°21'0 0.0
2014-Dec-11 06:34N 47°35' W 122°21'0 0.0
2014-Dec-11 05:34N 47°35' W 122°21'0 0.0
2014-Dec-11 04:34N 47°35' W 122°21'0 0.0
2014-Dec-11 03:34N 47°35' W 122°21'0 0.0
2014-Dec-11 02:34N 47°35' W 122°21'0 0.0
2014-Dec-11 01:33N 47°35' W 122°21'0 0.0
2014-Dec-11 00:33N 47°35' W 122°21'0 0.0
2014-Dec-10 23:33N 47°35' W 122°21'0 0.0
2014-Dec-10 22:33N 47°35' W 122°21'0 0.0
2014-Dec-10 21:32N 47°35' W 122°21'0 0.0
2014-Dec-10 20:29N 47°35' W 122°21'0 0.0
2014-Dec-10 19:33N 47°35' W 122°21'0 0.0
2014-Dec-10 18:33N 47°35' W 122°21'0 0.0
2014-Dec-10 17:33N 47°35' W 122°21'0 0.0
2014-Dec-10 16:33N 47°35' W 122°21'0 0.0
2014-Dec-10 15:33N 47°35' W 122°21'0 0.0
2014-Dec-10 14:32N 47°35' W 122°21'0 0.0
2014-Dec-10 13:33N 47°35' W 122°21'0 0.0
2014-Dec-10 12:33N 47°35' W 122°21'0 0.0
2014-Dec-10 11:33N 47°35' W 122°21'0 0.0
2014-Dec-10 10:25N 47°35' W 122°21'0 0.0
2014-Dec-10 09:33N 47°35' W 122°21'0 0.0
2014-Dec-10 08:34N 47°35' W 122°21'0 0.0
2014-Dec-10 07:33N 47°35' W 122°21'0 0.0
2014-Dec-10 06:33N 47°35' W 122°21'0 0.0
2014-Dec-10 05:33N 47°35' W 122°21'0 0.0
2014-Dec-10 04:33N 47°35' W 122°21'0 0.0
2014-Dec-10 03:33N 47°35' W 122°21'0 0.0
2014-Dec-10 02:33N 47°35' W 122°21'0 0.0
2014-Dec-10 01:33N 47°35' W 122°21'0 0.0
2014-Dec-10 00:33N 47°35' W 122°21'0 0.0
2014-Dec-09 23:33N 47°35' W 122°21'0 0.0
2014-Dec-09 22:30N 47°35' W 122°21'0 0.0
2014-Dec-09 21:33N 47°35' W 122°21'0 0.0
2014-Dec-09 20:33N 47°35' W 122°21'0 0.0
2014-Dec-09 19:33N 47°35' W 122°21'0 0.0
2014-Dec-09 18:33N 47°35' W 122°21'0 0.0
2014-Dec-09 18:31N 47°35' W 122°21'0 0.0
2014-Dec-09 17:34N 47°35' W 122°21'0 0.2
2014-Dec-09 17:32N 47°35' W 122°21'0 0.0
2014-Dec-09 16:34N 47°35' W 122°21'0 0.2
2014-Dec-09 16:32N 47°35' W 122°21'0 0.0
2014-Dec-09 15:33N 47°35' W 122°21'0 0.0
2014-Dec-09 15:31N 47°35' W 122°21'0 0.0
2014-Dec-09 14:33N 47°35' W 122°21'0 0.0
2014-Dec-09 14:31N 47°35' W 122°21'0 0.0
2014-Dec-09 13:33N 47°35' W 122°21'0 0.0
2014-Dec-09 13:31N 47°35' W 122°21'0 0.0
2014-Dec-09 12:33N 47°35' W 122°21'0 0.0
2014-Dec-09 12:31N 47°35' W 122°21'0 0.0
2014-Dec-09 11:33N 47°35' W 122°21'0 0.0
2014-Dec-09 11:31N 47°35' W 122°21'0 0.0
2014-Dec-09 10:22N 47°35' W 122°21'0 0.2
2014-Dec-09 10:20N 47°35' W 122°21'0 0.0
2014-Dec-09 09:33N 47°35' W 122°21'0 0.0
2014-Dec-09 09:25N 47°35' W 122°21'0 0.0
2014-Dec-09 08:33N 47°35' W 122°21'0 0.0
2014-Dec-09 08:30N 47°35' W 122°21'1 1.8
2014-Dec-09 07:40N 47°36' W 122°23'110.1
2014-Dec-09 07:34N 47°37' W 122°24'8 8.4
2014-Dec-09 06:34N 47°45' W 122°27'0 8.3
2014-Dec-09 06:30N 47°45' W 122°27'9 9.1
2014-Dec-09 05:34N 47°54' W 122°30'0 8.0
2014-Dec-09 05:30N 47°54' W 122°30'7 7.1
2014-Dec-09 04:33N 47°59' W 122°37'26 7.7
2014-Dec-09 01:11N 48°25' W 122°45'5 8.7
2014-Dec-09 00:33N 48°30' W 122°43'6 2.8
2014-Dec-08 22:27N 48°31' W 122°35'1 1.6
2014-Dec-08 21:33N 48°32' W 122°34'5 4.5
2014-Dec-08 20:34N 48°36' W 122°37'7 7.0
2014-Dec-08 19:33N 48°42' W 122°43'8 7.9
2014-Dec-08 18:33N 48°50' W 122°45'2 1.6
2014-Dec-08 17:19N 48°52' W 122°46'1 0.8
2014-Dec-08 16:24N 48°51' W 122°46'5 5.8
2014-Dec-08 15:34N 48°46' W 122°45'9 8.9
2014-Dec-08 14:33N 48°38' W 122°39'7 0.9
2014-Dec-08 06:33N 48°31' W 122°39'4 4.1
2014-Dec-08 05:33N 48°28' W 122°44'5 4.7
2014-Dec-08 04:34N 48°24' W 122°48'  

Dump ship's entire track history